Time;durP1;ratioP1;P1;durP2;ratioP2;P2;SDS_P1;SDS_P2;PMS_P1;PMS_P2;Temp;Humidity;BMP_temperature;BMP_pressure;BME280_temperature;BME280_humidity;BME280_pressure;Samples;Min_cycle;Max_cycle;Signal;HPM_P1;HPM_P2
2023/04/17 00:00:32;;;;;;;11.73;6.55;;;23.40;50.70;;;;;;6155043;28;82036;-65
2023/04/17 00:03:32;;;;;;;9.10;6.75;;;23.50;50.60;;;;;;6155475;28;80523;-67
2023/04/17 00:06:34;;;;;;;10.52;6.93;;;23.50;51.00;;;;;;6158502;28;81129;-68
2023/04/17 00:09:34;;;;;;;9.30;6.63;;;23.50;50.50;;;;;;6155821;28;80526;-68
2023/04/17 00:12:35;;;;;;;9.52;6.90;;;23.40;50.80;;;;;;6152592;28;83238;-66
2023/04/17 00:15:35;;;;;;;9.23;6.50;;;23.40;50.90;;;;;;6143249;28;80867;-64
2023/04/17 00:18:36;;;;;;;10.13;6.55;;;23.40;50.50;;;;;;6141129;28;80813;-65
2023/04/17 00:21:36;;;;;;;8.57;6.30;;;23.50;50.40;;;;;;6152877;28;80252;-64
2023/04/17 00:24:37;;;;;;;11.55;6.47;;;23.50;50.20;;;;;;6152795;28;83232;-64
2023/04/17 00:27:38;;;;;;;8.73;6.22;;;23.50;50.70;;;;;;6154582;28;80442;-64
2023/04/17 00:30:38;;;;;;;8.00;6.20;;;23.50;50.60;;;;;;6138750;28;81550;-63
2023/04/17 00:33:39;;;;;;;9.55;6.70;;;23.40;50.10;;;;;;6142015;28;80432;-63
2023/04/17 00:36:39;;;;;;;10.05;6.70;;;23.40;50.20;;;;;;6151853;28;80605;-63
2023/04/17 00:39:40;;;;;;;10.27;6.97;;;23.40;50.00;;;;;;6153962;28;81388;-64
2023/04/17 00:42:40;;;;;;;9.93;7.28;;;23.40;50.00;;;;;;6153550;28;83020;-64
2023/04/17 00:45:41;;;;;;;10.15;7.20;;;23.40;50.20;;;;;;6144605;28;80565;-65
2023/04/17 00:48:43;;;;;;;7.85;6.13;;;23.40;50.00;;;;;;6126196;28;83305;-66
2023/04/17 00:51:43;;;;;;;9.93;6.32;;;23.40;49.90;;;;;;6141665;28;80333;-73
2023/04/17 00:54:44;;;;;;;12.07;7.32;;;23.40;49.90;;;;;;6151672;28;83228;-71
2023/04/17 00:57:44;;;;;;;9.90;7.22;;;23.40;49.80;;;;;;6154086;28;81952;-74
2023/04/17 01:00:45;;;;;;;11.93;6.85;;;23.40;49.80;;;;;;6153595;28;82635;-72
2023/04/17 01:03:45;;;;;;;9.75;6.88;;;23.40;49.70;;;;;;6153097;28;80799;-69
2023/04/17 01:06:46;;;;;;;13.70;7.38;;;23.30;49.60;;;;;;6143073;28;81610;-73
2023/04/17 01:09:46;;;;;;;13.05;7.90;;;23.40;49.70;;;;;;6141686;28;80828;-71
2023/04/17 01:12:48;;;;;;;13.05;7.78;;;23.40;49.70;;;;;;6150901;28;80564;-67
2023/04/17 01:15:49;;;;;;;10.95;7.72;;;23.30;49.50;;;;;;6148073;28;82254;-67
2023/04/17 01:18:50;;;;;;;9.77;6.65;;;23.40;49.50;;;;;;6140386;28;83535;-69
2023/04/17 01:21:50;;;;;;;12.40;7.45;;;23.40;49.50;;;;;;6116277;28;83359;-68
2023/04/17 01:24:51;;;;;;;12.48;7.63;;;23.30;49.40;;;;;;6127007;28;80508;-68
2023/04/17 01:27:51;;;;;;;12.05;7.68;;;23.40;49.50;;;;;;6125774;28;85469;-69
2023/04/17 01:30:52;;;;;;;10.02;7.57;;;23.30;49.60;;;;;;6149565;28;82668;-72
2023/04/17 01:33:53;;;;;;;10.13;7.45;;;23.30;49.60;;;;;;6156740;28;83027;-73
2023/04/17 01:36:53;;;;;;;11.43;7.25;;;23.30;49.50;;;;;;6153270;28;80587;-73
2023/04/17 01:39:54;;;;;;;10.32;7.55;;;23.30;49.60;;;;;;6151054;28;80192;-75
2023/04/17 01:42:55;;;;;;;14.20;7.35;;;23.30;49.60;;;;;;6148730;28;83067;-73
2023/04/17 01:45:55;;;;;;;10.77;7.00;;;23.30;49.50;;;;;;6137023;28;82194;-73
2023/04/17 01:48:56;;;;;;;10.75;6.78;;;23.30;49.60;;;;;;6143460;28;80534;-70
2023/04/17 01:51:57;;;;;;;10.70;7.05;;;23.30;49.70;;;;;;6153010;28;81359;-71
2023/04/17 01:54:58;;;;;;;10.15;7.10;;;23.30;49.60;;;;;;6152077;28;80911;-71
2023/04/17 01:57:59;;;;;;;9.50;7.10;;;23.30;49.70;;;;;;6152728;28;81249;-74
2023/04/17 02:00:59;;;;;;;9.35;6.38;;;23.30;49.90;;;;;;6150754;28;82949;-73
2023/04/17 02:04:00;;;;;;;9.93;6.97;;;23.30;49.60;;;;;;6156910;28;82893;-74
2023/04/17 02:07:00;;;;;;;10.55;7.18;;;23.30;49.80;;;;;;6152105;28;82336;-76
2023/04/17 02:10:01;;;;;;;9.50;6.75;;;23.30;49.40;;;;;;6142619;28;83283;-73
2023/04/17 02:13:01;;;;;;;9.60;6.75;;;23.30;49.70;;;;;;6162030;28;83127;-70
2023/04/17 02:16:02;;;;;;;9.30;6.82;;;23.30;49.70;;;;;;6151241;28;81771;-69
2023/04/17 02:19:03;;;;;;;9.88;7.05;;;23.30;49.80;;;;;;6144280;28;80239;-68
2023/04/17 02:22:04;;;;;;;10.15;6.82;;;23.30;49.80;;;;;;6142725;28;82385;-62
2023/04/17 02:25:05;;;;;;;9.70;6.97;;;23.40;49.60;;;;;;6143133;28;80923;-62
2023/04/17 02:28:05;;;;;;;9.93;6.57;;;23.40;49.60;;;;;;6150111;28;83482;-62
2023/04/17 02:31:08;;;;;;;11.07;7.35;;;23.40;49.90;;;;;;6153322;28;80404;-63
2023/04/17 02:34:08;;;;;;;10.35;7.13;;;23.30;49.50;;;;;;6154915;28;80396;-64
2023/04/17 02:37:09;;;;;;;12.55;7.78;;;23.30;49.30;;;;;;6153645;28;83818;-62
2023/04/17 02:40:10;;;;;;;10.40;6.90;;;23.30;49.20;;;;;;6153751;28;82814;-63
2023/04/17 02:43:13;;;;;;;9.02;7.05;;;23.30;49.20;;;;;;6162875;28;83510;-63
2023/04/17 02:46:14;;;;;;;9.75;7.47;;;23.30;49.20;;;;;;6156848;28;80272;-64
2023/04/17 02:49:15;;;;;;;10.38;7.25;;;23.30;49.20;;;;;;6170634;28;83719;-63
2023/04/17 02:52:15;;;;;;;10.30;7.55;;;23.30;49.10;;;;;;6146037;28;83717;-63
2023/04/17 02:55:16;;;;;;;12.52;8.05;;;23.30;49.10;;;;;;6146220;28;83349;-63
2023/04/17 02:58:17;;;;;;;10.13;7.28;;;23.30;49.10;;;;;;6130311;28;83310;-75
2023/04/17 03:01:17;;;;;;;10.18;7.47;;;23.30;49.10;;;;;;6129316;28;81674;-77
2023/04/17 03:04:20;;;;;;;10.65;7.80;;;23.30;49.20;;;;;;6129839;28;82564;-71
2023/04/17 03:07:26;;;;;;;11.18;7.20;;;23.30;49.20;;;;;;6147388;28;83831;-69
2023/04/17 03:10:27;;;;;;;10.65;7.60;;;23.30;49.10;;;;;;6133522;28;83318;-66
2023/04/17 03:13:28;;;;;;;11.50;7.68;;;23.40;49.30;;;;;;6146826;28;83175;-66
2023/04/17 03:16:28;;;;;;;9.43;7.07;;;23.30;49.20;;;;;;6154735;28;83450;-66
2023/04/17 03:19:31;;;;;;;10.70;7.60;;;23.30;49.40;;;;;;6151695;28;80558;-66
2023/04/17 03:22:32;;;;;;;14.93;8.52;;;23.40;49.20;;;;;;6154338;28;81357;-66
2023/04/17 03:25:32;;;;;;;11.43;7.40;;;23.40;48.90;;;;;;6155147;28;81683;-66
2023/04/17 03:28:34;;;;;;;12.48;7.45;;;23.30;48.80;;;;;;6139781;28;83288;-66
2023/04/17 03:31:36;;;;;;;10.43;7.32;;;23.40;48.70;;;;;;6152022;28;83135;-64
2023/04/17 03:34:37;;;;;;;12.52;8.20;;;23.40;48.60;;;;;;6153653;28;83233;-65
2023/04/17 03:37:37;;;;;;;10.68;7.75;;;23.50;48.60;;;;;;6144798;28;83975;-67
2023/04/17 03:40:38;;;;;;;10.98;7.97;;;23.50;48.60;;;;;;6144495;28;82033;-66
2023/04/17 03:43:39;;;;;;;11.10;7.93;;;23.60;48.50;;;;;;6140581;28;83536;-71
2023/04/17 03:46:42;;;;;;;11.20;7.60;;;23.60;48.40;;;;;;6121974;28;81803;-69
2023/04/17 03:49:42;;;;;;;11.85;7.47;;;23.60;48.40;;;;;;6130423;28;80592;-68
2023/04/17 03:52:43;;;;;;;11.38;7.55;;;23.70;48.40;;;;;;6128593;28;83599;-60
2023/04/17 03:55:44;;;;;;;11.98;8.15;;;23.70;48.50;;;;;;6129144;28;80515;-61
2023/04/17 03:58:54;;;;;;;11.20;7.75;;;23.70;48.50;;;;;;6128350;28;82869;-62
2023/04/17 04:01:55;;;;;;;10.90;6.97;;;23.70;48.60;;;;;;6127814;28;82725;-64
2023/04/17 04:04:57;;;;;;;13.05;6.78;;;23.70;48.70;;;;;;6127760;28;82333;-61
2023/04/17 04:07:58;;;;;;;10.60;7.20;;;23.70;48.90;;;;;;6127278;28;81719;-61
2023/04/17 04:11:05;;;;;;;11.05;6.78;;;23.70;49.00;;;;;;6120467;28;83549;-66
2023/04/17 04:14:10;;;;;;;9.77;7.38;;;23.80;49.00;;;;;;6123280;28;83256;-66
2023/04/17 04:17:12;;;;;;;13.48;7.78;;;23.80;49.40;;;;;;6141902;28;82927;-69
2023/04/17 04:20:13;;;;;;;11.93;7.68;;;23.70;49.60;;;;;;6147602;28;87117;-64
2023/04/17 04:23:15;;;;;;;15.05;7.53;;;23.70;49.70;;;;;;6143308;28;82828;-69
2023/04/17 04:26:17;;;;;;;20.77;7.10;;;23.70;50.10;;;;;;6149830;28;87914;-67
2023/04/17 04:29:25;;;;;;;13.70;6.90;;;23.70;50.20;;;;;;6126234;28;83648;-67
2023/04/17 04:32:31;;;;;;;;;;;23.70;50.50;;;;;;6127709;28;83775;-69
2023/04/17 04:35:31;;;;;;;9.77;6.80;;;23.70;50.30;;;;;;6134472;28;82522;-70
2023/04/17 04:38:32;;;;;;;12.05;6.45;;;23.70;50.70;;;;;;6116779;28;80950;-67
2023/04/17 04:41:45;;;;;;;16.00;6.57;;;23.70;51.10;;;;;;6118675;28;83186;-68
2023/04/17 04:44:47;;;;;;;13.82;7.28;;;23.70;51.20;;;;;;6122669;28;82989;-72
2023/04/17 04:47:48;;;;;;;15.45;7.30;;;23.70;50.90;;;;;;6118782;28;80475;-68
2023/04/17 04:50:49;;;;;;;12.00;7.55;;;23.70;51.50;;;;;;6129056;28;80936;-65
2023/04/17 04:53:50;;;;;;;13.68;6.88;;;23.60;51.00;;;;;;6148577;28;80505;-64
2023/04/17 04:56:52;;;;;;;12.32;6.88;;;23.70;50.60;;;;;;6143647;28;83575;-67
2023/04/17 04:59:52;;;;;;;11.13;7.40;;;23.60;50.40;;;;;;6149190;28;81853;-67
2023/04/17 05:03:10;;;;;;;10.30;7.22;;;23.70;50.30;;;;;;6147991;28;83315;-72
2023/04/17 05:06:12;;;;;;;14.10;8.95;;;23.70;50.10;;;;;;6147960;28;82194;-68
2023/04/17 05:09:21;;;;;;;16.27;9.55;;;23.60;49.90;;;;;;6126110;28;82558;-60
2023/04/17 05:12:22;;;;;;;20.08;12.00;;;23.60;49.80;;;;;;6143938;28;83026;-62
2023/04/17 05:15:23;;;;;;;24.27;13.43;;;23.60;49.80;;;;;;6145877;28;82823;-62
2023/04/17 05:18:23;;;;;;;20.35;12.95;;;23.60;49.70;;;;;;6145692;28;86288;-60
2023/04/17 05:21:26;;;;;;;24.20;13.75;;;23.60;50.10;;;;;;6134938;28;84624;-64
2023/04/17 05:24:28;;;;;;;30.13;14.70;;;23.60;50.10;;;;;;6129086;28;85114;-62
2023/04/17 05:27:28;;;;;;;23.05;13.70;;;23.60;50.40;;;;;;6140317;28;84878;-64
2023/04/17 05:30:29;;;;;;;27.25;12.15;;;23.60;50.50;;;;;;6134137;28;85744;-63
2023/04/17 05:33:42;;;;;;;25.15;12.80;;;23.60;50.50;;;;;;6132019;28;83329;-62
2023/04/17 05:36:42;;;;;;;24.77;13.20;;;23.60;50.50;;;;;;6147028;28;83584;-60
2023/04/17 05:39:43;;;;;;;23.63;12.73;;;23.50;51.80;;;;;;6144012;28;83111;-61
2023/04/17 05:42:43;;;;;;;22.13;13.75;;;23.60;51.60;;;;;;6133304;28;84508;-63
2023/04/17 05:45:44;;;;;;;22.38;13.40;;;23.60;51.50;;;;;;6119377;28;86148;-63
2023/04/17 05:48:45;;;;;;;30.52;13.75;;;23.60;51.50;;;;;;6129905;28;84747;-63
2023/04/17 05:51:45;;;;;;;29.33;14.50;;;23.60;51.30;;;;;;6116225;28;84557;-64
2023/04/17 05:54:47;;;;;;;26.08;12.52;;;23.60;51.30;;;;;;6129911;28;85635;-62
2023/04/17 05:57:47;;;;;;;29.55;12.20;;;23.60;51.10;;;;;;6140550;28;85778;-62
2023/04/17 06:00:48;;;;;;;22.83;12.30;;;23.60;51.00;;;;;;6143435;28;83844;-62
2023/04/17 06:03:51;;;;;;;30.05;12.73;;;23.60;50.70;;;;;;6140748;28;85948;-62
2023/04/17 06:06:56;;;;;;;22.80;11.97;;;23.60;50.80;;;;;;6135221;28;85430;-63
2023/04/17 06:09:56;;;;;;;31.42;11.63;;;23.60;50.80;;;;;;6138966;28;85562;-62
2023/04/17 06:12:59;;;;;;;26.80;11.85;;;23.60;50.80;;;;;;6145290;28;85435;-67
2023/04/17 06:16:00;;;;;;;27.40;11.32;;;23.60;51.50;;;;;;6147724;28;87268;-64
2023/04/17 06:19:00;;;;;;;20.00;11.65;;;23.60;51.80;;;;;;6149042;28;85653;-62
2023/04/17 06:22:02;;;;;;;22.58;11.30;;;23.70;52.20;;;;;;6135456;28;87534;-64
2023/04/17 06:25:02;;;;;;;23.48;11.30;;;23.70;52.00;;;;;;6147741;28;85468;-62
2023/04/17 06:28:03;;;;;;;27.10;12.75;;;23.70;52.20;;;;;;6147687;28;83303;-62
2023/04/17 06:31:03;;;;;;;26.13;11.23;;;23.70;52.30;;;;;;6138861;28;87583;-65
2023/04/17 06:34:04;;;;;;;22.75;11.75;;;23.70;52.20;;;;;;6129846;28;84979;-63
2023/04/17 06:37:10;;;;;;;24.23;14.75;;;23.70;52.10;;;;;;6147996;28;86380;-65
2023/04/17 06:40:12;;;;;;;21.08;11.95;;;23.70;52.00;;;;;;6149096;28;85924;-64
2023/04/17 06:43:13;;;;;;;26.20;15.48;;;23.70;51.60;;;;;;6147848;28;85993;-64
2023/04/17 06:46:14;;;;;;;18.50;13.50;;;23.70;51.60;;;;;;6148801;28;85886;-64
2023/04/17 06:49:14;;;;;;;26.20;14.35;;;23.70;52.00;;;;;;6136109;28;84017;-63
2023/04/17 06:52:18;;;;;;;19.50;13.30;;;23.70;52.00;;;;;;6125818;28;83422;-64
2023/04/17 06:55:19;;;;;;;21.83;13.75;;;23.70;51.90;;;;;;6141286;28;83350;-62
2023/04/17 06:58:20;;;;;;;29.77;14.45;;;23.70;51.60;;;;;;6144761;28;83243;-62
2023/04/17 07:01:20;;;;;;;28.30;13.45;;;23.70;51.60;;;;;;6147706;28;84432;-62
2023/04/17 07:04:21;;;;;;;21.48;12.00;;;23.70;51.60;;;;;;6146538;28;83876;-63
2023/04/17 07:07:21;;;;;;;14.52;11.05;;;23.70;51.40;;;;;;6143464;28;83093;-63
2023/04/17 07:10:22;;;;;;;18.05;10.98;;;23.70;51.20;;;;;;6149940;28;83702;-66
2023/04/17 07:13:22;;;;;;;22.67;9.95;;;23.70;51.30;;;;;;6148724;28;83656;-63
2023/04/17 07:16:23;;;;;;;15.68;10.40;;;23.70;51.10;;;;;;6152399;28;82967;-62
2023/04/17 07:19:24;;;;;;;23.08;10.88;;;23.70;51.10;;;;;;6147146;28;87137;-60
2023/04/17 07:22:25;;;;;;;18.40;9.98;;;23.70;51.60;;;;;;6147438;28;86520;-58
2023/04/17 07:25:28;;;;;;;26.05;10.13;;;23.70;51.40;;;;;;6149240;28;83298;-59
2023/04/17 07:28:33;;;;;;;14.93;8.45;;;23.70;51.10;;;;;;6146579;28;82734;-61
2023/04/17 07:31:33;;;;;;;13.57;9.85;;;23.70;51.10;;;;;;6152113;28;82315;-61
2023/04/17 07:34:34;;;;;;;14.32;9.57;;;23.60;51.10;;;;;;6146992;28;80523;-62
2023/04/17 07:37:35;;;;;;;21.10;9.20;;;23.70;51.30;;;;;;6152872;28;80376;-65
2023/04/17 07:40:36;;;;;;;12.82;8.23;;;23.70;51.20;;;;;;6149922;28;80760;-65
2023/04/17 07:43:36;;;;;;;13.65;7.93;;;23.70;51.00;;;;;;6149071;28;80421;-64
2023/04/17 07:46:37;;;;;;;14.98;8.88;;;23.60;50.90;;;;;;6150407;28;80962;-65
2023/04/17 07:49:39;;;;;;;16.58;8.13;;;23.70;51.30;;;;;;6151750;28;82611;-64
2023/04/17 07:52:39;;;;;;;13.50;7.40;;;23.60;50.90;;;;;;6151352;28;81124;-60
2023/04/17 07:55:40;;;;;;;16.77;8.25;;;23.60;50.50;;;;;;6153994;28;81270;-60
2023/04/17 07:58:41;;;;;;;14.68;7.97;;;23.60;50.50;;;;;;6153910;28;80458;-60
2023/04/17 08:01:41;;;;;;;12.88;8.23;;;23.60;50.50;;;;;;6153965;28;80892;-60
2023/04/17 08:04:43;;;;;;;10.77;7.95;;;23.60;50.80;;;;;;6153485;28;80239;-59
2023/04/17 08:07:44;;;;;;;10.82;8.13;;;23.60;50.40;;;;;;6153655;28;80382;-60
2023/04/17 08:10:45;;;;;;;11.30;8.00;;;23.50;50.50;;;;;;6153452;28;81187;-60
2023/04/17 08:13:45;;;;;;;13.10;9.18;;;23.50;50.40;;;;;;6154197;28;80291;-60
2023/04/17 08:16:46;;;;;;;11.93;8.45;;;23.50;50.10;;;;;;6152908;28;80125;-60
2023/04/17 08:19:49;;;;;;;10.65;8.00;;;23.50;50.10;;;;;;6144968;28;80928;-59
2023/04/17 08:22:49;;;;;;;12.23;7.80;;;23.50;50.20;;;;;;6152798;28;80524;-61
2023/04/17 08:25:50;;;;;;;13.30;8.50;;;23.50;50.20;;;;;;6153224;28;82019;-60
2023/04/17 08:28:52;;;;;;;12.02;7.72;;;23.50;50.40;;;;;;6151366;28;80940;-65
2023/04/17 08:31:52;;;;;;;12.50;8.82;;;23.50;50.20;;;;;;6152998;28;81177;-65
2023/04/17 08:34:53;;;;;;;11.02;8.07;;;23.50;50.10;;;;;;6152606;28;80805;-65
2023/04/17 08:37:58;;;;;;;14.98;8.45;;;23.50;50.40;;;;;;6153770;28;81599;-65
2023/04/17 08:41:07;;;;;;;11.20;8.68;;;23.50;50.20;;;;;;6152858;28;80818;-64
2023/04/17 08:44:10;;;;;;;14.30;9.35;;;23.50;50.20;;;;;;6151859;28;80415;-64
2023/04/17 08:47:11;;;;;;;10.52;7.60;;;23.50;50.20;;;;;;6152752;28;81898;-65
2023/04/17 08:50:11;;;;;;;10.93;7.97;;;23.50;50.00;;;;;;6153376;28;81186;-65
2023/04/17 08:53:12;;;;;;;9.68;8.05;;;23.50;50.40;;;;;;6153119;28;80699;-65
2023/04/17 08:56:12;;;;;;;15.77;8.88;;;23.50;49.70;;;;;;6151639;28;86013;-64
2023/04/17 08:59:13;;;;;;;12.57;8.52;;;23.50;49.70;;;;;;6151930;28;80809;-65
2023/04/17 09:02:14;;;;;;;11.63;8.60;;;23.50;49.60;;;;;;6153070;28;80914;-64
2023/04/17 09:05:15;;;;;;;13.77;8.48;;;23.50;49.60;;;;;;6152181;28;80838;-66
2023/04/17 09:08:15;;;;;;;9.82;7.57;;;23.50;49.50;;;;;;6151471;28;80917;-65
2023/04/17 09:11:16;;;;;;;11.38;7.03;;;23.50;49.50;;;;;;6152809;28;80863;-65
2023/04/17 09:14:16;;;;;;;10.13;7.60;;;23.60;49.50;;;;;;6151687;28;81105;-65
2023/04/17 09:17:17;;;;;;;10.48;7.60;;;23.60;49.50;;;;;;6152580;28;81148;-65
2023/04/17 09:20:17;;;;;;;10.80;6.97;;;23.60;49.50;;;;;;6153186;28;80226;-64
2023/04/17 09:23:18;;;;;;;12.48;8.07;;;23.60;49.50;;;;;;6153440;28;80854;-65
2023/04/17 09:26:19;;;;;;;11.13;8.13;;;23.60;49.50;;;;;;6152207;28;80595;-65
2023/04/17 09:29:20;;;;;;;11.38;7.88;;;23.60;49.40;;;;;;6150349;28;80594;-65
2023/04/17 09:32:20;;;;;;;10.55;7.75;;;23.70;49.50;;;;;;6151703;28;80380;-65
2023/04/17 09:35:21;;;;;;;10.10;7.20;;;23.60;49.70;;;;;;6152913;28;81286;-66
2023/04/17 09:38:21;;;;;;;9.77;6.80;;;23.70;49.40;;;;;;6151834;28;80396;-65
2023/04/17 09:41:22;;;;;;;9.15;7.22;;;23.70;49.50;;;;;;6152223;28;80756;-64
2023/04/17 09:44:23;;;;;;;8.75;6.70;;;23.70;49.40;;;;;;6151347;28;80552;-60
2023/04/17 09:47:23;;;;;;;9.90;7.00;;;23.70;50.10;;;;;;6152295;28;80497;-60
2023/04/17 09:50:24;;;;;;;7.82;6.57;;;23.70;49.50;;;;;;6151595;28;83808;-61
2023/04/17 09:53:24;;;;;;;8.63;6.78;;;23.70;49.50;;;;;;6151893;28;80411;-61
2023/04/17 09:56:25;;;;;;;10.43;7.30;;;23.70;49.50;;;;;;6151055;28;81156;-61
2023/04/17 09:59:25;;;;;;;7.95;6.65;;;23.70;49.50;;;;;;6151437;28;80095;-61
2023/04/17 10:02:26;;;;;;;9.82;6.75;;;23.70;49.50;;;;;;6151572;28;80606;-60
2023/04/17 10:05:27;;;;;;;8.65;6.63;;;23.70;49.50;;;;;;6151743;28;80438;-59
2023/04/17 10:08:28;;;;;;;7.30;6.20;;;23.80;49.50;;;;;;6151748;28;80498;-60
2023/04/17 10:11:28;;;;;;;9.23;6.55;;;23.80;49.40;;;;;;6151923;28;80993;-59
2023/04/17 10:14:29;;;;;;;7.22;5.57;;;23.80;49.30;;;;;;6151274;28;80363;-60
2023/04/17 10:17:33;;;;;;;8.23;6.25;;;23.80;49.30;;;;;;6151444;28;80202;-61
2023/04/17 10:20:34;;;;;;;8.77;5.97;;;23.80;49.20;;;;;;6151804;28;82961;-61
2023/04/17 10:23:35;;;;;;;10.27;6.53;;;23.80;49.20;;;;;;6152169;28;80326;-61
2023/04/17 10:26:36;;;;;;;7.20;5.65;;;23.90;49.20;;;;;;6151622;28;80431;-60
2023/04/17 10:29:37;;;;;;;8.40;5.95;;;23.80;49.20;;;;;;6149656;28;81292;-60
2023/04/17 10:32:37;;;;;;;7.10;5.97;;;23.80;49.20;;;;;;6151216;28;81560;-60
2023/04/17 10:35:38;;;;;;;8.25;6.32;;;23.90;49.10;;;;;;6150601;28;80473;-60
2023/04/17 10:38:38;;;;;;;10.73;6.43;;;23.90;49.40;;;;;;6151679;28;80807;-60
2023/04/17 10:41:39;;;;;;;9.57;6.10;;;23.90;49.00;;;;;;6150909;28;80460;-60
2023/04/17 10:44:39;;;;;;;8.07;5.82;;;23.90;49.10;;;;;;6151193;28;80411;-59
2023/04/17 10:47:40;;;;;;;6.75;5.50;;;23.90;49.00;;;;;;6151851;28;81110;-60
2023/04/17 10:50:40;;;;;;;7.65;5.70;;;23.90;49.10;;;;;;6153768;28;82404;-61
2023/04/17 10:53:41;;;;;;;8.77;6.68;;;23.90;49.10;;;;;;6152817;28;80212;-60
2023/04/17 10:56:41;;;;;;;7.53;5.72;;;23.90;49.00;;;;;;6155650;28;80173;-65
2023/04/17 10:59:42;;;;;;;7.25;5.93;;;23.90;49.00;;;;;;6153575;28;80461;-65
2023/04/17 11:02:44;;;;;;;9.50;5.50;;;23.90;49.00;;;;;;6153271;28;81089;-66
2023/04/17 11:05:44;;;;;;;7.82;6.03;;;23.90;48.90;;;;;;6155330;28;80752;-65
2023/04/17 11:08:45;;;;;;;6.63;5.65;;;23.90;48.90;;;;;;6155117;28;81193;-65
2023/04/17 11:11:46;;;;;;;7.32;5.60;;;23.90;48.90;;;;;;6153269;28;82220;-65
2023/04/17 11:14:46;;;;;;;8.82;5.53;;;23.90;48.90;;;;;;6154664;28;80305;-65
2023/04/17 11:17:47;;;;;;;9.30;6.30;;;23.90;48.90;;;;;;6167976;28;80454;-65
2023/04/17 11:20:48;;;;;;;6.78;5.47;;;23.90;48.90;;;;;;6147764;28;81002;-66
2023/04/17 11:23:50;;;;;;;8.52;6.07;;;23.90;48.90;;;;;;6154695;28;80407;-67
2023/04/17 11:26:50;;;;;;;6.68;6.00;;;23.90;48.80;;;;;;6154584;28;81494;-67
2023/04/17 11:29:51;;;;;;;6.53;4.85;;;23.90;48.90;;;;;;6142012;28;80314;-66
2023/04/17 11:32:52;;;;;;;7.93;5.82;;;23.90;48.80;;;;;;6154323;28;80984;-60
2023/04/17 11:35:52;;;;;;;6.45;5.72;;;23.90;48.90;;;;;;6154151;28;81619;-60
2023/04/17 11:38:53;;;;;;;8.40;5.57;;;23.90;48.80;;;;;;6154439;28;80478;-60
2023/04/17 11:41:55;;;;;;;6.05;5.40;;;23.90;48.80;;;;;;6154948;28;80471;-61
2023/04/17 11:44:56;;;;;;;6.63;4.78;;;23.90;48.80;;;;;;6153998;28;80173;-60
2023/04/17 11:47:56;;;;;;;6.28;5.25;;;23.90;48.90;;;;;;6154306;28;80580;-60
2023/04/17 11:50:57;;;;;;;6.63;4.93;;;23.90;48.80;;;;;;6154071;28;80803;-66
2023/04/17 11:53:58;;;;;;;6.72;5.70;;;23.90;48.90;;;;;;6154107;28;81814;-66
2023/04/17 11:56:58;;;;;;;7.32;5.43;;;23.90;48.90;;;;;;6152877;28;80487;-66
2023/04/17 11:59:59;;;;;;;6.20;5.35;;;23.90;48.90;;;;;;6154121;28;80407;-65
2023/04/17 12:03:00;;;;;;;7.95;5.63;;;23.90;48.80;;;;;;6152773;28;80533;-66
2023/04/17 12:06:00;;;;;;;8.23;5.22;;;23.80;48.80;;;;;;6153938;28;83568;-66
2023/04/17 12:09:01;;;;;;;6.45;5.18;;;23.80;48.80;;;;;;6152871;28;82983;-59
2023/04/17 12:12:02;;;;;;;7.40;5.72;;;23.90;49.40;;;;;;6153786;28;82940;-60
2023/04/17 12:15:03;;;;;;;7.05;5.25;;;23.90;48.80;;;;;;6153487;28;81158;-60
2023/04/17 12:18:04;;;;;;;6.82;4.95;;;23.90;48.80;;;;;;6150362;28;81930;-60
2023/04/17 12:21:05;;;;;;;6.63;5.15;;;23.90;48.80;;;;;;6148114;28;80252;-61
2023/04/17 12:24:05;;;;;;;6.03;4.55;;;23.90;48.80;;;;;;6153655;28;80983;-61
2023/04/17 12:27:06;;;;;;;5.75;5.13;;;23.90;48.80;;;;;;6152427;28;80310;-61
2023/04/17 12:30:06;;;;;;;8.32;6.00;;;23.90;48.80;;;;;;6151792;28;82922;-60
2023/04/17 12:33:07;;;;;;;6.13;4.80;;;23.90;48.90;;;;;;6151996;28;80242;-60
2023/04/17 12:36:09;;;;;;;6.30;5.00;;;23.90;48.90;;;;;;6153311;28;80776;-60
2023/04/17 12:39:11;;;;;;;7.13;5.30;;;23.90;48.80;;;;;;6153348;28;80615;-59
2023/04/17 12:42:12;;;;;;;5.85;5.15;;;23.90;48.80;;;;;;6152530;28;83666;-60
2023/04/17 12:45:12;;;;;;;7.72;5.18;;;23.90;48.80;;;;;;6153455;28;81193;-60
2023/04/17 12:48:13;;;;;;;7.15;5.30;;;23.90;48.80;;;;;;6154324;28;82950;-64
2023/04/17 12:51:13;;;;;;;6.00;5.18;;;23.90;48.80;;;;;;6152858;28;81001;-64
2023/04/17 12:54:14;;;;;;;4.95;4.18;;;23.90;48.80;;;;;;6153572;28;80497;-63
2023/04/17 12:57:15;;;;;;;9.50;5.18;;;23.90;48.80;;;;;;6152727;28;81820;-64
2023/04/17 13:00:15;;;;;;;6.03;4.95;;;23.90;48.80;;;;;;6152682;28;80739;-64
2023/04/17 13:03:16;;;;;;;7.97;5.40;;;23.90;48.80;;;;;;6153038;28;80506;-65
2023/04/17 13:06:16;;;;;;;6.60;5.15;;;23.90;48.80;;;;;;6151915;28;80339;-65
2023/04/17 13:09:18;;;;;;;6.45;4.85;;;23.90;48.80;;;;;;6152255;28;80911;-68
2023/04/17 13:12:19;;;;;;;8.48;5.25;;;23.90;48.80;;;;;;6152697;28;80255;-66
2023/04/17 13:15:20;;;;;;;7.43;5.28;;;23.90;48.80;;;;;;6153630;28;80978;-67
2023/04/17 13:18:20;;;;;;;7.68;5.13;;;23.90;48.80;;;;;;6145174;28;80365;-66
2023/04/17 13:21:21;;;;;;;6.20;5.13;;;23.90;48.80;;;;;;6149524;28;80895;-66
2023/04/17 13:24:21;;;;;;;7.38;5.25;;;23.90;48.80;;;;;;6152191;28;80250;-61
2023/04/17 13:27:22;;;;;;;6.90;4.70;;;23.90;48.80;;;;;;6152294;28;80435;-61
2023/04/17 13:30:23;;;;;;;8.45;4.63;;;23.90;48.70;;;;;;6150272;28;81253;-60
2023/04/17 13:33:24;;;;;;;6.30;4.90;;;23.90;48.80;;;;;;6152586;28;82519;-61
2023/04/17 13:36:24;;;;;;;6.80;5.25;;;23.80;48.70;;;;;;6151841;28;80553;-61
2023/04/17 13:39:25;;;;;;;8.32;5.70;;;23.90;48.70;;;;;;6153244;28;80942;-60
2023/04/17 13:42:26;;;;;;;8.20;5.30;;;23.80;48.80;;;;;;6143241;28;80380;-61
2023/04/17 13:45:26;;;;;;;9.32;5.13;;;23.90;48.80;;;;;;6127573;28;80314;-60
2023/04/17 13:48:27;;;;;;;7.95;4.93;;;23.80;48.70;;;;;;6138108;28;80406;-60
2023/04/17 13:51:27;;;;;;;7.10;4.85;;;23.80;48.20;;;;;;6142558;28;83364;-60
2023/04/17 13:54:28;;;;;;;6.80;4.63;;;23.90;48.80;;;;;;6127719;28;81252;-60
2023/04/17 13:57:29;;;;;;;6.38;4.78;;;23.80;48.70;;;;;;6127716;28;81103;-60
2023/04/17 14:00:29;;;;;;;8.43;5.10;;;23.80;48.80;;;;;;6126114;28;80282;-64
2023/04/17 14:03:30;;;;;;;7.38;4.95;;;23.80;48.80;;;;;;6127753;28;81109;-65
2023/04/17 14:06:30;;;;;;;5.53;4.47;;;23.80;48.70;;;;;;6127374;28;81183;-64
2023/04/17 14:09:31;;;;;;;5.93;4.72;;;23.80;48.80;;;;;;6127487;28;80898;-65
2023/04/17 14:12:31;;;;;;;5.45;4.28;;;23.80;48.80;;;;;;6127416;28;80550;-64
2023/04/17 14:15:32;;;;;;;5.97;4.57;;;23.80;48.70;;;;;;6127106;28;80856;-64
2023/04/17 14:18:32;;;;;;;5.60;4.25;;;23.80;48.70;;;;;;6128734;28;80478;-61
2023/04/17 14:21:33;;;;;;;6.18;4.03;;;23.80;48.70;;;;;;6128123;28;81589;-60
2023/04/17 14:24:33;;;;;;;4.78;3.70;;;23.80;48.70;;;;;;6128838;28;81420;-62
2023/04/17 14:27:35;;;;;;;5.60;4.40;;;23.80;48.70;;;;;;6131531;28;80981;-59
2023/04/17 14:30:35;;;;;;;5.05;3.90;;;23.80;48.70;;;;;;6129627;28;81011;-60
2023/04/17 14:33:36;;;;;;;4.82;3.80;;;23.80;48.80;;;;;;6131189;28;80387;-60
2023/04/17 14:36:36;;;;;;;5.90;4.13;;;23.80;48.90;;;;;;6138288;28;83599;-64
2023/04/17 14:39:37;;;;;;;5.40;3.80;;;23.70;48.90;;;;;;6155307;28;80760;-65
2023/04/17 14:42:37;;;;;;;5.50;4.00;;;23.70;49.00;;;;;;6154975;28;81197;-64
2023/04/17 14:45:38;;;;;;;4.95;3.95;;;23.70;49.00;;;;;;6154129;28;80088;-65
2023/04/17 14:48:38;;;;;;;4.57;3.75;;;23.70;49.00;;;;;;6155752;28;81741;-64
2023/04/17 14:51:39;;;;;;;4.90;3.85;;;23.60;49.00;;;;;;6155153;28;82019;-65
2023/04/17 14:54:39;;;;;;;4.88;3.58;;;23.70;49.00;;;;;;6156060;28;80756;-67
2023/04/17 14:57:40;;;;;;;6.03;4.43;;;23.60;49.00;;;;;;6154498;28;80978;-67
2023/04/17 15:00:40;;;;;;;5.80;3.60;;;23.70;49.00;;;;;;6155319;28;81885;-66
2023/04/17 15:03:42;;;;;;;4.95;3.50;;;23.70;48.90;;;;;;6155177;28;80387;-68
2023/04/17 15:06:42;;;;;;;3.97;3.17;;;23.70;49.00;;;;;;6155505;28;81228;-68
2023/04/17 15:09:43;;;;;;;4.80;3.72;;;23.60;49.00;;;;;;6155365;28;82287;-69
2023/04/17 15:12:44;;;;;;;5.40;3.50;;;23.60;49.00;;;;;;6154585;28;81278;-69
2023/04/17 15:15:44;;;;;;;3.90;3.47;;;23.60;49.00;;;;;;6154513;28;80794;-68
2023/04/17 15:18:45;;;;;;;4.03;3.30;;;23.60;48.90;;;;;;6153449;28;80490;-66
2023/04/17 15:21:45;;;;;;;3.78;2.90;;;23.60;49.10;;;;;;6152810;28;80558;-68
2023/04/17 15:24:46;;;;;;;4.22;3.08;;;23.50;49.10;;;;;;6154502;28;80648;-67
2023/04/17 15:27:46;;;;;;;4.10;3.42;;;23.60;49.10;;;;;;6154690;28;80905;-66
2023/04/17 15:30:47;;;;;;;4.38;3.25;;;23.50;49.20;;;;;;6150220;28;80071;-67
2023/04/17 15:33:47;;;;;;;4.40;3.33;;;23.50;49.20;;;;;;6155807;28;80937;-68